Time;durP1;ratioP1;P1;durP2;ratioP2;P2;SDS_P1;SDS_P2;PMS_P1;PMS_P2;Temp;Humidity;BMP_temperature;BMP_pressure;BME280_temperature;BME280_humidity;BME280_pressure;Samples;Min_cycle;Max_cycle;Signal;HPM_P1;HPM_P2
2021/01/02 00:01:43;;;;;;;6.70;6.13;;;19.80;99.90;;;;;;5052689;28;20041;-63
2021/01/02 00:04:45;;;;;;;6.90;1.77;;;19.80;99.90;;;;;;5036029;28;20558;-63
2021/01/02 00:07:47;;;;;;;6.15;1.95;;;19.80;99.90;;;;;;5032907;28;20041;-63
2021/01/02 00:10:20;;;;;;;3.75;1.73;;;19.80;99.90;;;;;;5012905;28;20104;-63
2021/01/02 00:13:09;;;;;;;6.57;2.03;;;19.70;99.90;;;;;;5013054;28;20034;-64
2021/01/02 00:16:13;;;;;;;7.20;2.08;;;19.60;99.90;;;;;;5012846;28;20104;-63
2021/01/02 00:19:07;;;;;;;4.32;1.67;;;19.50;99.90;;;;;;4996269;28;20110;-64
2021/01/02 00:22:09;;;;;;;5.93;2.13;;;19.40;99.90;;;;;;4993085;28;20070;-62
2021/01/02 00:24:56;;;;;;;4.85;1.63;;;19.40;99.90;;;;;;4973546;28;20090;-63
2021/01/02 00:27:33;;;;;;;5.07;1.38;;;19.50;99.90;;;;;;4973514;28;20034;-63
2021/01/02 00:30:06;;;;;;;5.68;2.10;;;19.40;99.90;;;;;;4973422;28;20034;-63
2021/01/02 00:33:00;;;;;;;8.23;2.22;;;19.50;99.90;;;;;;4957514;28;20039;-63
2021/01/02 00:35:31;;;;;;;5.18;1.63;;;19.60;99.90;;;;;;4973324;28;20035;-63
2021/01/02 00:38:07;;;;;;;7.65;1.85;;;19.80;99.90;;;;;;4981449;28;20150;-63
2021/01/02 00:40:37;;;;;;;2.50;1.23;;;20.00;99.90;;;;;;4992662;28;20038;-63
2021/01/02 00:43:05;;;;;;;3.40;1.70;;;20.20;99.90;;;;;;4960838;28;20038;-63
2021/01/02 00:45:35;;;;;;;4.65;2.13;;;20.40;99.90;;;;;;4992698;28;20038;-63
2021/01/02 00:48:05;;;;;;;6.97;2.17;;;20.70;99.90;;;;;;4975325;28;20445;-63
2021/01/02 00:50:34;;;;;;;6.22;5.63;;;21.10;99.90;;;;;;5011938;28;20519;-63
2021/01/02 00:53:52;;;;;;;11.23;10.13;;;21.60;99.90;;;;;;5027943;28;20406;-64
2021/01/02 00:56:30;;;;;;;10.60;9.90;;;21.80;99.90;;;;;;5007032;28;20037;-61
2021/01/02 00:59:21;;;;;;;9.77;9.27;;;22.00;99.90;;;;;;5012117;28;20041;-61
2021/01/02 01:02:19;;;;;;;17.10;15.68;;;22.00;99.90;;;;;;4992395;28;20415;-61
2021/01/02 01:05:03;;;;;;;3.45;2.20;;;22.00;99.90;;;;;;4972682;28;20042;-60
2021/01/02 01:07:34;;;;;;;4.22;1.90;;;22.40;99.90;;;;;;4973092;28;20070;-59
2021/01/02 01:10:10;;;;;;;3.13;1.83;;;22.60;99.90;;;;;;4956883;28;20134;-60
2021/01/02 01:12:44;;;;;;;2.10;1.90;;;22.60;99.90;;;;;;4972761;28;20062;-61
2021/01/02 01:15:13;;;;;;;2.25;1.90;;;22.70;99.90;;;;;;4972716;28;20361;-61
2021/01/02 01:18:09;;;;;;;4.77;2.20;;;22.70;99.90;;;;;;4956663;28;20165;-61
2021/01/02 01:20:44;;;;;;;2.35;1.95;;;22.60;99.90;;;;;;4937302;29;20277;-61
2021/01/02 01:23:26;;;;;;;2.72;1.70;;;22.80;99.90;;;;;;4953318;29;20039;-61
2021/01/02 01:26:26;;;;;;;1.98;1.85;;;22.90;99.90;;;;;;4953301;29;20046;-61
2021/01/02 01:28:58;;;;;;;2.33;2.13;;;23.10;99.90;;;;;;4934296;29;20071;-62
2021/01/02 01:31:51;;;;;;;2.00;1.90;;;23.10;99.90;;;;;;4934002;29;20381;-61
2021/01/02 01:34:23;;;;;;;3.13;2.92;;;23.10;99.90;;;;;;4934067;29;20044;-61
2021/01/02 01:36:52;;;;;;;2.88;2.05;;;23.20;99.90;;;;;;4933834;29;20055;-60
2021/01/02 01:39:25;;;;;;;1.55;0.63;;;23.40;99.90;;;;;;4933946;29;20030;-61
2021/01/02 01:42:04;;;;;;;1.38;0.47;;;23.60;99.90;;;;;;4921417;29;20078;-61
2021/01/02 01:44:46;;;;;;;2.20;0.60;;;23.70;99.90;;;;;;4953170;29;20028;-61
2021/01/02 01:47:18;;;;;;;3.00;0.63;;;23.60;99.90;;;;;;4952687;29;20070;-61
2021/01/02 01:50:05;;;;;;;1.65;0.60;;;23.70;99.90;;;;;;4952925;29;20508;-61
2021/01/02 01:52:51;;;;;;;2.10;0.60;;;24.00;99.90;;;;;;4937133;29;20126;-61
2021/01/02 01:55:36;;;;;;;2.22;0.70;;;24.20;99.90;;;;;;4914884;29;20076;-61
2021/01/02 01:58:12;;;;;;;3.03;0.95;;;24.10;99.90;;;;;;4917069;29;20032;-61
2021/01/02 02:00:50;;;;;;;2.38;0.30;;;23.90;99.90;;;;;;4991158;28;20042;-61
2021/01/02 02:03:47;;;;;;;2.22;0.68;;;23.90;99.90;;;;;;4991706;28;20480;-62
2021/01/02 02:06:30;;;;;;;1.95;0.63;;;23.50;99.90;;;;;;5017390;28;20068;-62
2021/01/02 02:09:00;;;;;;;0.70;0.40;;;23.60;99.90;;;;;;5050878;28;20043;-62
2021/01/02 02:11:52;;;;;;;3.25;0.98;;;23.70;99.90;;;;;;5050845;28;20037;-61
2021/01/02 02:14:37;;;;;;;2.05;0.80;;;23.80;99.90;;;;;;5050776;28;20032;-62
2021/01/02 02:17:06;;;;;;;2.03;0.80;;;23.70;99.90;;;;;;5050854;28;20104;-61
2021/01/02 02:20:04;;;;;;;2.00;0.80;;;23.60;99.90;;;;;;5050619;28;20047;-60
2021/01/02 02:22:36;;;;;;;2.25;1.00;;;23.60;99.90;;;;;;5010876;28;20034;-61
2021/01/02 02:25:07;;;;;;;1.63;0.90;;;23.50;99.90;;;;;;5011048;28;20026;-62
2021/01/02 02:27:38;;;;;;;1.75;0.70;;;23.40;99.90;;;;;;5050769;28;20109;-62
2021/01/02 02:30:30;;;;;;;2.45;1.02;;;23.40;99.90;;;;;;5050641;28;20032;-66
2021/01/02 02:32:58;;;;;;;4.95;1.38;;;23.20;99.90;;;;;;5030594;28;20601;-62
2021/01/02 02:35:25;;;;;;;2.05;1.30;;;23.10;99.90;;;;;;5014002;28;20474;-63
2021/01/02 02:37:54;;;;;;;4.60;1.40;;;23.00;99.90;;;;;;5030508;28;20124;-62
2021/01/02 02:40:23;;;;;;;2.20;0.82;;;22.80;99.90;;;;;;5014221;28;20033;-62
2021/01/02 02:42:57;;;;;;;1.95;0.90;;;22.80;99.90;;;;;;5030486;28;20037;-64
2021/01/02 02:45:29;;;;;;;2.35;0.88;;;22.70;99.90;;;;;;5030568;28;20479;-64
2021/01/02 02:48:01;;;;;;;2.15;0.90;;;22.50;99.90;;;;;;5030546;28;20479;-62
2021/01/02 02:50:31;;;;;;;2.33;1.10;;;22.40;99.90;;;;;;5010342;28;20161;-62
2021/01/02 02:53:10;;;;;;;2.15;1.10;;;22.20;99.90;;;;;;5010713;28;20485;-62
2021/01/02 02:55:39;;;;;;;1.60;1.30;;;22.10;99.90;;;;;;4994340;28;20075;-62
2021/01/02 02:58:08;;;;;;;2.83;1.50;;;22.00;99.90;;;;;;5010738;28;20038;-63
2021/01/02 03:00:36;;;;;;;3.70;1.58;;;21.90;99.90;;;;;;5029469;28;20044;-62
2021/01/02 03:03:08;;;;;;;5.63;5.20;;;21.80;99.90;;;;;;5033796;28;20040;-62
2021/01/02 03:05:38;;;;;;;4.40;4.10;;;21.70;99.90;;;;;;5017337;28;20076;-62
2021/01/02 03:08:07;;;;;;;12.63;11.18;;;21.60;99.90;;;;;;5033949;28;20447;-63
2021/01/02 03:10:35;;;;;;;3.80;1.50;;;21.40;99.90;;;;;;5033680;28;20091;-62
2021/01/02 03:13:03;;;;;;;2.63;1.90;;;21.30;99.90;;;;;;5033700;28;20120;-62
2021/01/02 03:15:39;;;;;;;4.70;1.80;;;21.30;99.90;;;;;;5033621;28;20057;-62
2021/01/02 03:18:07;;;;;;;5.13;4.72;;;21.20;99.90;;;;;;5033850;28;20029;-62
2021/01/02 03:20:35;;;;;;;6.20;5.60;;;21.10;99.90;;;;;;5039735;28;20028;-61
2021/01/02 03:23:03;;;;;;;2.22;0.93;;;21.00;99.90;;;;;;5075520;28;20024;-61
2021/01/02 03:25:31;;;;;;;6.20;1.20;;;20.90;99.90;;;;;;5075390;28;20032;-62
2021/01/02 03:27:59;;;;;;;4.82;1.27;;;20.90;99.90;;;;;;5075679;28;20374;-62
2021/01/02 03:30:27;;;;;;;5.15;1.00;;;20.80;99.90;;;;;;5074070;28;20027;-61
2021/01/02 03:32:55;;;;;;;4.28;1.42;;;20.80;99.90;;;;;;5075659;28;20070;-62
2021/01/02 03:35:23;;;;;;;6.32;3.10;;;20.80;99.90;;;;;;5075579;28;20520;-63
2021/01/02 03:37:50;;;;;;;2.95;1.45;;;20.80;99.90;;;;;;5075566;28;20044;-62
2021/01/02 03:40:19;;;;;;;6.68;2.25;;;20.80;99.90;;;;;;5056809;28;20098;-62
2021/01/02 03:42:48;;;;;;;4.28;1.77;;;20.80;99.90;;;;;;5075467;28;20028;-62
2021/01/02 03:45:17;;;;;;;4.07;2.03;;;20.80;99.90;;;;;;5075406;28;20074;-62
2021/01/02 03:47:47;;;;;;;6.18;2.25;;;20.90;99.90;;;;;;5075151;28;20078;-62
2021/01/02 03:50:16;;;;;;;5.43;2.72;;;20.80;99.90;;;;;;5074766;28;20511;-63
2021/01/02 03:52:44;;;;;;;4.60;2.70;;;20.90;99.90;;;;;;5056956;28;20025;-63
2021/01/02 03:55:13;;;;;;;4.65;1.90;;;20.90;99.90;;;;;;5073605;28;20021;-62
2021/01/02 03:57:40;;;;;;;6.30;2.30;;;20.90;99.90;;;;;;5075083;28;20052;-63
2021/01/02 04:00:09;;;;;;;5.07;2.25;;;20.80;99.90;;;;;;5075045;28;20108;-63
2021/01/02 04:02:36;;;;;;;9.38;3.00;;;20.80;99.90;;;;;;5075011;28;20021;-61
2021/01/02 04:05:06;;;;;;;5.63;3.30;;;20.80;99.90;;;;;;5074613;28;20511;-62
2021/01/02 04:07:34;;;;;;;4.73;3.10;;;20.90;99.90;;;;;;5074682;28;20021;-62
2021/01/02 04:10:02;;;;;;;4.57;3.30;;;20.80;99.90;;;;;;5074198;28;20021;-62
2021/01/02 04:12:30;;;;;;;6.18;3.80;;;20.80;99.90;;;;;;5074889;28;20483;-63
2021/01/02 04:14:58;;;;;;;3.63;3.22;;;20.80;99.90;;;;;;5074488;28;20029;-62
2021/01/02 04:17:25;;;;;;;7.10;3.72;;;20.90;99.90;;;;;;5074613;28;20027;-63
2021/01/02 04:19:54;;;;;;;5.28;4.22;;;20.80;99.90;;;;;;5074478;28;20012;-62
2021/01/02 04:22:22;;;;;;;4.45;4.00;;;20.80;99.90;;;;;;5074230;28;20028;-61
2021/01/02 04:24:49;;;;;;;3.95;3.55;;;20.80;99.90;;;;;;5073169;28;20110;-62
2021/01/02 04:27:17;;;;;;;8.30;4.13;;;20.80;99.90;;;;;;5074262;28;20059;-63
2021/01/02 04:29:44;;;;;;;4.40;3.85;;;20.90;99.90;;;;;;5074502;28;20029;-62
2021/01/02 04:32:11;;;;;;;4.57;3.75;;;21.00;99.90;;;;;;5074129;28;20052;-62
2021/01/02 04:34:39;;;;;;;4.30;3.90;;;21.10;99.90;;;;;;5074166;28;20032;-63
2021/01/02 04:37:07;;;;;;;4.32;3.70;;;21.10;99.90;;;;;;5074052;28;20469;-63
2021/01/02 04:39:35;;;;;;;5.15;4.35;;;21.30;99.90;;;;;;5074185;28;20021;-62
2021/01/02 04:42:02;;;;;;;6.45;5.43;;;21.30;99.90;;;;;;5074212;28;20089;-62
2021/01/02 04:44:30;;;;;;;5.38;5.03;;;21.40;99.90;;;;;;5073866;28;20469;-62
2021/01/02 04:47:01;;;;;;;5.80;5.30;;;21.40;99.90;;;;;;5073918;28;20120;-61
2021/01/02 04:49:29;;;;;;;5.95;5.45;;;21.40;99.90;;;;;;5073856;28;20133;-60
2021/01/02 04:52:03;;;;;;;6.50;5.90;;;21.50;99.90;;;;;;5073924;28;20025;-63
2021/01/02 04:54:31;;;;;;;12.02;11.07;;;21.50;99.90;;;;;;5073707;28;20029;-61
2021/01/02 04:57:01;;;;;;;10.90;9.93;;;21.60;99.90;;;;;;5073551;28;20048;-61
2021/01/02 04:59:30;;;;;;;5.70;5.15;;;21.50;99.90;;;;;;5071637;28;20064;-61
2021/01/02 05:02:00;;;;;;;6.18;5.68;;;21.60;99.90;;;;;;5073580;28;20377;-61
2021/01/02 05:04:27;;;;;;;7.10;6.50;;;21.70;99.90;;;;;;5073632;28;20025;-62
2021/01/02 05:06:54;;;;;;;6.60;6.20;;;21.80;99.90;;;;;;5073602;28;20370;-61
2021/01/02 05:09:22;;;;;;;6.47;5.78;;;21.80;99.90;;;;;;5073738;28;20083;-61
2021/01/02 05:11:50;;;;;;;7.40;6.75;;;21.90;99.90;;;;;;5073579;28;20423;-61
2021/01/02 05:14:18;;;;;;;8.05;7.35;;;22.00;99.90;;;;;;5072136;28;20016;-61
2021/01/02 05:16:45;;;;;;;7.97;7.20;;;22.20;99.90;;;;;;5055598;28;20385;-63
2021/01/02 05:19:15;;;;;;;8.00;7.30;;;22.50;99.90;;;;;;5073343;28;20013;-64
2021/01/02 05:21:46;;;;;;;8.30;7.60;;;22.70;99.90;;;;;;5072647;28;20029;-64
2021/01/02 05:24:16;;;;;;;8.95;8.38;;;22.80;99.90;;;;;;5073618;28;20040;-62
2021/01/02 05:26:53;;;;;;;8.40;8.00;;;22.80;99.90;;;;;;5073693;28;20214;-62
2021/01/02 05:29:24;;;;;;;8.70;8.10;;;22.80;99.90;;;;;;5073545;28;20400;-61
2021/01/02 05:31:56;;;;;;;9.02;8.30;;;22.70;99.90;;;;;;5073271;28;20496;-61
2021/01/02 05:34:26;;;;;;;8.57;8.07;;;22.60;99.90;;;;;;5073675;28;20020;-60
2021/01/02 05:37:03;;;;;;;8.95;7.95;;;22.60;99.90;;;;;;5073169;28;20025;-60
2021/01/02 05:39:40;;;;;;;8.57;8.18;;;22.50;99.90;;;;;;5073394;28;20040;-61
2021/01/02 05:42:08;;;;;;;8.68;7.97;;;22.50;99.90;;;;;;5073311;28;20385;-63
2021/01/02 05:44:39;;;;;;;8.10;7.47;;;22.30;99.90;;;;;;5073335;28;20074;-61
2021/01/02 05:47:11;;;;;;;8.50;7.75;;;22.30;99.90;;;;;;5054733;28;20037;-60
2021/01/02 05:49:47;;;;;;;7.50;6.80;;;22.10;99.90;;;;;;5072961;28;20060;-60
2021/01/02 05:52:15;;;;;;;7.50;6.80;;;21.90;99.90;;;;;;5072854;28;20025;-60
2021/01/02 05:55:02;;;;;;;7.85;6.50;;;21.70;99.90;;;;;;5073195;28;20032;-60
2021/01/02 05:57:30;;;;;;;7.85;7.25;;;21.50;99.90;;;;;;5050946;28;20071;-60
2021/01/02 05:59:59;;;;;;;7.70;6.90;;;21.50;99.90;;;;;;5050897;28;20045;-60
2021/01/02 06:02:33;;;;;;;8.82;6.32;;;21.40;99.90;;;;;;5050695;28;20033;-60
2021/01/02 06:05:05;;;;;;;7.05;6.40;;;21.40;99.90;;;;;;5050723;28;20025;-60
2021/01/02 06:07:41;;;;;;;6.20;5.40;;;21.20;99.90;;;;;;5050699;28;20473;-61
2021/01/02 06:10:10;;;;;;;5.55;5.15;;;21.10;99.90;;;;;;5050664;28;20112;-62
2021/01/02 06:12:41;;;;;;;4.80;4.40;;;21.00;99.90;;;;;;5050674;28;20130;-61
2021/01/02 06:15:14;;;;;;;3.65;1.20;;;20.90;99.90;;;;;;5034379;28;20482;-62
2021/01/02 06:17:46;;;;;;;4.47;1.20;;;20.90;99.90;;;;;;5050618;28;20057;-62
2021/01/02 06:20:16;;;;;;;3.22;1.60;;;20.90;99.90;;;;;;5050670;28;20048;-62
2021/01/02 06:22:45;;;;;;;3.08;1.30;;;20.90;99.90;;;;;;5050725;28;20138;-61
2021/01/02 06:25:14;;;;;;;3.55;1.63;;;21.00;99.90;;;;;;5050628;28;20036;-61
2021/01/02 06:27:46;;;;;;;5.70;1.83;;;20.90;99.90;;;;;;5054758;28;20040;-63
2021/01/02 06:30:17;;;;;;;4.85;1.73;;;21.00;99.90;;;;;;5072618;28;20043;-63
2021/01/02 06:32:46;;;;;;;5.47;2.45;;;21.00;99.90;;;;;;5073633;28;20020;-62
2021/01/02 06:35:21;;;;;;;4.53;3.38;;;21.00;99.90;;;;;;5076611;28;20410;-63
2021/01/02 06:38:06;;;;;;;3.25;2.95;;;21.00;99.90;;;;;;5076652;28;20025;-61
2021/01/02 06:40:40;;;;;;;4.20;2.47;;;20.90;99.90;;;;;;5074977;28;20029;-60
2021/01/02 06:43:20;;;;;;;3.42;1.90;;;20.80;99.90;;;;;;5076612;28;20032;-59
2021/01/02 06:45:55;;;;;;;4.05;2.20;;;20.80;99.90;;;;;;5076465;28;20480;-62
2021/01/02 06:48:37;;;;;;;2.10;1.90;;;20.60;99.90;;;;;;5076324;28;20024;-62
2021/01/02 06:51:28;;;;;;;3.60;3.15;;;20.60;99.90;;;;;;5076342;28;20544;-63
2021/01/02 06:53:57;;;;;;;3.58;1.85;;;20.50;99.90;;;;;;5076158;28;20021;-61
2021/01/02 06:56:32;;;;;;;2.97;2.00;;;20.40;99.90;;;;;;5057727;28;20370;-61
2021/01/02 06:59:00;;;;;;;3.55;2.47;;;20.40;99.90;;;;;;5076113;28;20052;-61
2021/01/02 07:01:27;;;;;;;3.42;2.30;;;20.30;99.90;;;;;;5075933;28;20427;-61
2021/01/02 07:03:56;;;;;;;2.67;2.40;;;20.30;99.90;;;;;;5076264;28;20025;-61
2021/01/02 07:06:26;;;;;;;3.72;3.53;;;20.20;99.90;;;;;;5075942;28;20032;-61
2021/01/02 07:09:11;;;;;;;4.30;4.00;;;20.20;99.90;;;;;;5076143;28;20020;-61
2021/01/02 07:11:44;;;;;;;5.95;5.47;;;20.20;99.90;;;;;;5076007;28;20040;-61
2021/01/02 07:14:28;;;;;;;1.95;1.08;;;20.20;99.90;;;;;;5075904;28;20024;-62
2021/01/02 07:17:22;;;;;;;3.65;1.05;;;20.10;99.90;;;;;;5075982;28;20028;-63
2021/01/02 07:19:51;;;;;;;5.78;4.40;;;20.20;99.90;;;;;;5053438;28;20049;-63
2021/01/02 07:22:19;;;;;;;3.80;0.93;;;20.20;99.90;;;;;;5053490;28;20044;-61
2021/01/02 07:24:51;;;;;;;4.95;3.50;;;20.20;99.90;;;;;;5053714;28;20040;-63
2021/01/02 07:27:24;;;;;;;3.20;2.58;;;20.20;99.90;;;;;;5036662;28;20068;-61
2021/01/02 07:29:58;;;;;;;5.30;3.00;;;20.10;99.90;;;;;;5053287;28;20036;-61
2021/01/02 07:32:28;;;;;;;6.40;2.92;;;20.00;99.90;;;;;;5053255;28;20029;-61
2021/01/02 07:35:05;;;;;;;5.80;4.28;;;20.00;99.90;;;;;;5053214;28;20140;-61
2021/01/02 07:37:35;;;;;;;2.85;1.73;;;20.00;99.90;;;;;;5053351;28;20476;-61
2021/01/02 07:40:09;;;;;;;1.50;1.15;;;19.90;99.90;;;;;;5053067;28;20033;-62
2021/01/02 07:42:41;;;;;;;1.67;0.40;;;19.90;99.90;;;;;;5053110;28;20025;-61
2021/01/02 07:45:14;;;;;;;2.47;0.60;;;19.80;99.90;;;;;;5052148;28;20464;-60
2021/01/02 07:47:52;;;;;;;2.78;1.20;;;19.70;99.90;;;;;;5053029;28;20025;-62
2021/01/02 07:50:22;;;;;;;2.15;0.43;;;19.60;99.90;;;;;;5047853;28;20040;-60
2021/01/02 07:53:02;;;;;;;1.20;0.60;;;19.60;99.90;;;;;;5075343;28;20469;-61
2021/01/02 07:55:34;;;;;;;3.00;0.77;;;19.60;99.90;;;;;;5075237;28;20521;-61
2021/01/02 07:58:03;;;;;;;2.38;0.88;;;19.60;99.90;;;;;;5074994;28;20025;-62
2021/01/02 08:00:31;;;;;;;2.72;0.60;;;19.60;99.90;;;;;;5074763;28;20036;-60
2021/01/02 08:03:18;;;;;;;2.88;0.60;;;19.50;99.90;;;;;;5075140;28;20048;-60
2021/01/02 08:05:48;;;;;;;3.03;2.83;;;19.50;99.90;;;;;;5052574;28;20037;-60
2021/01/02 08:08:18;;;;;;;4.30;4.00;;;19.50;99.90;;;;;;5052868;28;20539;-60
2021/01/02 08:10:46;;;;;;;5.20;2.97;;;19.40;99.90;;;;;;5052517;28;20033;-61
2021/01/02 08:13:18;;;;;;;4.57;1.55;;;19.30;99.90;;;;;;5052478;28;20079;-60
2021/01/02 08:15:45;;;;;;;4.97;4.50;;;19.20;99.90;;;;;;5052533;28;20052;-61
2021/01/02 08:18:13;;;;;;;4.45;1.10;;;19.20;99.90;;;;;;5035907;28;20128;-59
2021/01/02 08:20:41;;;;;;;4.15;1.52;;;19.20;99.90;;;;;;5052374;28;20032;-60
2021/01/02 08:23:11;;;;;;;3.92;0.90;;;19.20;99.90;;;;;;5052257;28;20504;-61
2021/01/02 08:25:39;;;;;;;4.57;1.00;;;19.20;99.90;;;;;;5052343;28;20175;-59
2021/01/02 08:28:09;;;;;;;2.45;0.98;;;19.20;99.90;;;;;;5052347;28;20056;-60
2021/01/02 08:30:37;;;;;;;5.95;1.40;;;19.20;99.90;;;;;;5052283;28;20037;-62
2021/01/02 08:33:08;;;;;;;6.28;1.80;;;19.20;99.90;;;;;;5052253;28;20033;-59
2021/01/02 08:35:38;;;;;;;2.70;1.52;;;19.20;99.90;;;;;;5053090;28;20021;-59
2021/01/02 08:38:10;;;;;;;4.90;1.00;;;19.20;99.90;;;;;;5074393;28;20025;-59
2021/01/02 08:40:49;;;;;;;3.33;0.80;;;19.20;99.90;;;;;;5074071;28;20024;-58
2021/01/02 08:43:36;;;;;;;3.65;0.90;;;19.20;99.90;;;;;;5074135;28;20020;-59
2021/01/02 08:46:09;;;;;;;4.43;0.80;;;19.20;99.90;;;;;;5052036;28;20044;-60
2021/01/02 08:48:46;;;;;;;6.05;1.20;;;19.20;99.90;;;;;;5051737;28;20029;-59
2021/01/02 08:51:25;;;;;;;8.40;1.85;;;19.10;99.90;;;;;;5051801;28;20040;-60
2021/01/02 08:53:54;;;;;;;7.22;1.50;;;19.10;99.90;;;;;;5051884;28;20107;-59
2021/01/02 08:56:27;;;;;;;4.88;1.15;;;19.10;99.90;;;;;;5051668;28;20520;-61
2021/01/02 08:58:57;;;;;;;5.88;1.50;;;19.10;99.90;;;;;;5051694;28;20021;-60
2021/01/02 09:01:24;;;;;;;7.35;1.25;;;19.10;99.90;;;;;;5051668;28;20036;-60
2021/01/02 09:03:52;;;;;;;4.25;0.88;;;19.10;99.90;;;;;;5051525;28;20486;-59
2021/01/02 09:06:25;;;;;;;4.88;1.40;;;19.10;99.90;;;;;;5051611;28;20452;-59
2021/01/02 09:09:06;;;;;;;5.32;1.23;;;19.10;99.90;;;;;;5051746;28;20375;-59
2021/01/02 09:11:54;;;;;;;3.30;0.85;;;19.10;99.90;;;;;;5051412;28;20033;-59
2021/01/02 09:14:22;;;;;;;4.30;0.90;;;19.10;99.90;;;;;;5031539;28;20030;-59
2021/01/02 09:17:09;;;;;;;3.85;0.65;;;19.10;99.90;;;;;;5040057;28;20033;-59
2021/01/02 09:19:37;;;;;;;3.25;1.08;;;19.10;99.90;;;;;;5031412;28;20029;-59
2021/01/02 09:22:17;;;;;;;2.63;0.82;;;19.10;99.90;;;;;;5031422;28;20455;-59
2021/01/02 09:24:45;;;;;;;3.28;0.90;;;19.00;99.90;;;;;;5031488;28;20037;-59
2021/01/02 09:27:13;;;;;;;4.10;0.95;;;19.10;99.90;;;;;;5031369;28;20033;-60
2021/01/02 09:29:41;;;;;;;3.05;0.90;;;19.00;99.90;;;;;;5031244;28;20037;-60
2021/01/02 09:32:11;;;;;;;2.65;1.13;;;19.00;99.90;;;;;;5031048;28;20033;-60
2021/01/02 09:34:39;;;;;;;6.40;1.25;;;19.00;99.90;;;;;;5031289;28;20402;-59
2021/01/02 09:37:07;;;;;;;3.55;0.93;;;19.00;99.90;;;;;;5031263;28;20038;-59
2021/01/02 09:39:34;;;;;;;5.45;1.00;;;19.00;99.90;;;;;;5014681;28;20506;-59
2021/01/02 09:42:02;;;;;;;3.10;0.88;;;19.00;99.90;;;;;;5031013;28;20343;-59
2021/01/02 09:44:30;;;;;;;3.80;1.05;;;19.00;99.90;;;;;;5034448;28;20055;-59
2021/01/02 09:46:57;;;;;;;7.28;1.20;;;19.10;99.90;;;;;;5050954;28;20048;-60
2021/01/02 09:49:25;;;;;;;7.20;1.45;;;19.00;99.90;;;;;;5051164;28;20057;-58
2021/01/02 09:51:53;;;;;;;5.82;1.45;;;19.00;99.90;;;;;;5073183;28;20063;-60
2021/01/02 09:54:20;;;;;;;12.52;11.35;;;19.00;99.90;;;;;;5054704;28;20447;-60
2021/01/02 09:56:48;;;;;;;6.43;2.00;;;19.00;99.90;;;;;;5073291;28;20039;-60
2021/01/02 09:59:16;;;;;;;7.10;2.08;;;19.00;99.90;;;;;;5073415;28;20454;-60
2021/01/02 10:01:51;;;;;;;5.68;1.40;;;19.10;99.90;;;;;;5072979;28;20016;-60
2021/01/02 10:04:18;;;;;;;4.05;1.35;;;19.10;99.90;;;;;;5073001;28;20029;-58
2021/01/02 10:06:46;;;;;;;4.28;1.30;;;19.10;99.90;;;;;;5072917;28;20078;-59
2021/01/02 10:09:14;;;;;;;4.95;1.20;;;19.10;99.90;;;;;;5076275;28;20028;-58
2021/01/02 10:11:45;;;;;;;3.25;0.98;;;19.10;99.90;;;;;;5076849;28;20039;-60
2021/01/02 10:14:12;;;;;;;3.42;0.90;;;19.10;99.90;;;;;;5077228;28;20107;-59
2021/01/02 10:16:40;;;;;;;6.30;2.05;;;19.10;99.90;;;;;;5077084;28;20021;-59
2021/01/02 10:19:10;;;;;;;1.80;0.70;;;19.10;99.90;;;;;;5077061;28;20462;-59
2021/01/02 10:21:37;;;;;;;4.22;0.90;;;19.00;99.90;;;;;;5077014;28;20016;-60
2021/01/02 10:24:05;;;;;;;5.95;1.92;;;19.00;99.90;;;;;;5076912;28;20511;-59
2021/01/02 10:26:33;;;;;;;3.35;1.38;;;18.90;99.90;;;;;;5076853;28;20032;-60
2021/01/02 10:29:04;;;;;;;3.78;1.58;;;18.90;99.90;;;;;;5076716;28;20028;-59
2021/01/02 10:31:32;;;;;;;5.97;1.70;;;18.90;99.90;;;;;;5076514;28;20110;-59
2021/01/02 10:34:00;;;;;;;7.75;1.40;;;18.90;99.90;;;;;;5076733;28;20024;-59
2021/01/02 10:36:27;;;;;;;6.97;1.77;;;18.90;99.90;;;;;;5076636;28;20031;-60
2021/01/02 10:38:55;;;;;;;8.65;1.70;;;18.90;99.90;;;;;;5076357;28;20032;-60
2021/01/02 10:41:23;;;;;;;5.90;1.70;;;18.90;99.90;;;;;;5076424;28;20056;-59
2021/01/02 10:43:51;;;;;;;6.40;2.22;;;18.90;99.90;;;;;;5076429;28;20021;-59
2021/01/02 10:46:18;;;;;;;7.57;1.63;;;18.90;99.90;;;;;;5076418;28;20029;-59
2021/01/02 10:48:46;;;;;;;6.28;1.58;;;18.90;99.90;;;;;;5076116;28;20108;-59
2021/01/02 10:51:18;;;;;;;7.28;1.50;;;18.90;99.90;;;;;;5076279;28;20526;-59
2021/01/02 10:53:46;;;;;;;7.00;1.75;;;18.90;99.90;;;;;;5076479;28;20031;-59
2021/01/02 10:56:16;;;;;;;7.93;1.63;;;18.90;99.90;;;;;;5076334;28;20025;-59
2021/01/02 10:58:44;;;;;;;6.88;1.55;;;18.90;99.90;;;;;;5076057;28;20059;-59
2021/01/02 11:01:13;;;;;;;8.85;2.00;;;18.90;99.90;;;;;;5076267;28;20039;-59
2021/01/02 11:03:41;;;;;;;9.30;1.95;;;18.90;99.90;;;;;;5076114;28;20027;-59
2021/01/02 11:06:13;;;;;;;8.85;2.17;;;18.90;99.90;;;;;;5076034;28;20028;-61
2021/01/02 11:08:41;;;;;;;10.20;2.42;;;18.90;99.90;;;;;;5075974;28;20350;-59
2021/01/02 11:11:09;;;;;;;9.73;2.30;;;19.00;99.90;;;;;;5058075;28;20112;-59
2021/01/02 11:13:37;;;;;;;8.07;2.25;;;19.00;99.90;;;;;;5074038;28;20055;-59
2021/01/02 11:16:05;;;;;;;13.18;1.88;;;19.00;99.90;;;;;;5075865;28;20108;-59
2021/01/02 11:18:33;;;;;;;12.20;2.05;;;19.00;99.90;;;;;;5075480;28;20024;-59
2021/01/02 11:21:01;;;;;;;7.20;2.22;;;19.00;99.90;;;;;;5075153;28;20063;-59
2021/01/02 11:23:29;;;;;;;7.22;1.73;;;19.00;99.90;;;;;;5075498;28;20025;-59
2021/01/02 11:25:58;;;;;;;9.80;2.15;;;19.00;99.90;;;;;;5075809;28;20028;-59
2021/01/02 11:28:26;;;;;;;8.25;1.80;;;19.00;99.90;;;;;;5075521;28;20092;-60
2021/01/02 11:30:53;;;;;;;10.73;2.17;;;19.00;99.90;;;;;;5075291;28;20030;-59
2021/01/02 11:33:21;;;;;;;7.95;2.00;;;19.00;99.90;;;;;;5075698;28;20028;-60
2021/01/02 11:35:50;;;;;;;11.80;2.05;;;19.10;99.90;;;;;;5075634;28;20040;-59
2021/01/02 11:38:18;;;;;;;6.07;1.42;;;19.10;99.90;;;;;;5074006;28;20031;-60
2021/01/02 11:40:49;;;;;;;7.10;1.85;;;19.10;99.90;;;;;;5075172;28;20025;-60
2021/01/02 11:43:17;;;;;;;10.15;1.83;;;19.10;99.90;;;;;;5075285;28;20031;-60
2021/01/02 11:45:47;;;;;;;4.88;1.63;;;19.10;99.90;;;;;;5075490;28;20024;-60
2021/01/02 11:48:16;;;;;;;9.27;1.80;;;19.10;99.90;;;;;;5075103;28;20108;-60
2021/01/02 11:50:49;;;;;;;9.27;2.63;;;19.10;99.90;;;;;;5074944;28;20052;-59
2021/01/02 11:53:17;;;;;;;9.63;2.65;;;19.10;99.90;;;;;;5075409;28;20039;-60
2021/01/02 11:55:45;;;;;;;10.60;2.35;;;19.10;99.90;;;;;;5075242;28;20027;-59
2021/01/02 11:58:13;;;;;;;12.57;2.20;;;19.10;99.90;;;;;;5039996;28;20036;-59
2021/01/02 12:00:41;;;;;;;6.32;1.90;;;19.10;99.90;;;;;;5057499;28;20377;-59
2021/01/02 12:03:09;;;;;;;8.13;1.80;;;19.10;99.90;;;;;;5075041;28;20025;-59
2021/01/02 12:05:37;;;;;;;7.57;1.63;;;19.10;99.90;;;;;;5074816;28;20028;-59
2021/01/02 12:08:05;;;;;;;12.20;2.25;;;19.10;99.90;;;;;;5075048;28;20029;-59
2021/01/02 12:10:33;;;;;;;9.77;1.80;;;19.10;99.90;;;;;;5074839;28;20079;-60
2021/01/02 12:13:01;;;;;;;9.00;1.90;;;19.10;99.90;;;;;;5074847;28;20439;-60
2021/01/02 12:15:29;;;;;;;6.65;1.48;;;19.10;99.90;;;;;;5056147;28;20025;-59
2021/01/02 12:17:57;;;;;;;9.90;2.00;;;19.10;99.90;;;;;;5074617;28;20025;-59
2021/01/02 12:20:24;;;;;;;12.75;2.22;;;19.10;99.90;;;;;;5074592;28;20021;-59
2021/01/02 12:22:52;;;;;;;11.82;1.98;;;19.10;99.90;;;;;;5074486;28;20020;-59
2021/01/02 12:25:23;;;;;;;10.10;1.73;;;19.10;99.90;;;;;;5074423;28;20024;-59
2021/01/02 12:27:51;;;;;;;15.60;2.97;;;19.10;99.90;;;;;;5074952;28;20021;-59
2021/01/02 12:30:20;;;;;;;16.05;2.55;;;19.10;99.90;;;;;;5074218;28;20396;-59
2021/01/02 12:32:48;;;;;;;11.15;1.92;;;19.10;99.90;;;;;;5074290;28;20376;-59
2021/01/02 12:35:17;;;;;;;6.72;1.67;;;19.10;99.90;;;;;;5074658;28;20483;-59
2021/01/02 12:37:44;;;;;;;13.70;2.15;;;19.10;99.90;;;;;;5074126;28;20016;-60
2021/01/02 12:40:13;;;;;;;10.90;2.03;;;19.10;99.90;;;;;;5073913;28;20024;-59
2021/01/02 12:42:40;;;;;;;6.35;1.95;;;19.10;99.90;;;;;;5074310;28;20021;-60
2021/01/02 12:45:10;;;;;;;10.98;2.30;;;19.10;99.90;;;;;;5074064;28;20473;-59
2021/01/02 12:47:39;;;;;;;8.25;1.70;;;19.10;99.90;;;;;;5074143;28;20035;-60
2021/01/02 12:50:09;;;;;;;8.75;1.90;;;19.10;99.90;;;;;;5073717;28;20048;-60
2021/01/02 12:52:37;;;;;;;13.10;1.83;;;19.10;99.90;;;;;;5074175;28;20032;-59
2021/01/02 12:55:07;;;;;;;10.52;2.20;;;19.10;99.90;;;;;;5072653;28;20028;-60
2021/01/02 12:57:35;;;;;;;9.73;1.90;;;19.20;99.90;;;;;;5073868;28;20027;-60
2021/01/02 13:00:04;;;;;;;12.68;2.30;;;19.10;99.90;;;;;;5074051;28;20024;-60
2021/01/02 13:02:32;;;;;;;9.30;2.30;;;19.20;99.90;;;;;;5072873;28;20024;-59
2021/01/02 13:05:01;;;;;;;9.13;2.20;;;19.20;99.90;;;;;;5074027;28;20112;-60
2021/01/02 13:07:28;;;;;;;8.07;1.60;;;19.20;99.90;;;;;;5073609;28;20028;-60
2021/01/02 13:09:56;;;;;;;6.00;1.70;;;19.20;99.90;;;;;;5073896;28;20107;-58
2021/01/02 13:12:24;;;;;;;6.90;1.60;;;19.20;99.90;;;;;;5074251;28;20039;-59